29TH JUNE, 2016

 

METAR SMJP 290200Z 11003KT 9999 -RA FEW001 BKN030 24/24 Q1016 NOSIG=